sensor_id;sensor_type;location;lat;lon;timestamp;temperature;humidity
15426;DHT22;7812;50.072;7.036;2024-03-25T00:01:42;6.30;99.90
15426;DHT22;7812;50.072;7.036;2024-03-25T00:04:08;6.30;99.90
15426;DHT22;7812;50.072;7.036;2024-03-25T00:06:34;6.40;99.90
15426;DHT22;7812;50.072;7.036;2024-03-25T00:09:00;6.30;99.90
15426;DHT22;7812;50.072;7.036;2024-03-25T00:11:26;6.00;99.90
15426;DHT22;7812;50.072;7.036;2024-03-25T00:13:53;6.10;99.90
15426;DHT22;7812;50.072;7.036;2024-03-25T00:16:18;6.00;99.90
15426;DHT22;7812;50.072;7.036;2024-03-25T00:18:44;6.10;99.90
15426;DHT22;7812;50.072;7.036;2024-03-25T00:21:09;6.10;99.90
15426;DHT22;7812;50.072;7.036;2024-03-25T00:23:35;6.00;99.90
15426;DHT22;7812;50.072;7.036;2024-03-25T00:26:01;6.00;99.90
15426;DHT22;7812;50.072;7.036;2024-03-25T00:28:26;5.90;99.90
15426;DHT22;7812;50.072;7.036;2024-03-25T00:30:52;5.90;99.90
15426;DHT22;7812;50.072;7.036;2024-03-25T00:33:17;5.70;99.90
15426;DHT22;7812;50.072;7.036;2024-03-25T00:35:43;5.70;99.90
15426;DHT22;7812;50.072;7.036;2024-03-25T00:38:11;5.70;99.90
15426;DHT22;7812;50.072;7.036;2024-03-25T00:40:37;5.70;99.90
15426;DHT22;7812;50.072;7.036;2024-03-25T00:43:03;5.50;99.90
15426;DHT22;7812;50.072;7.036;2024-03-25T00:45:29;5.30;99.90
15426;DHT22;7812;50.072;7.036;2024-03-25T00:47:59;5.30;99.90
15426;DHT22;7812;50.072;7.036;2024-03-25T00:50:26;5.30;99.90
15426;DHT22;7812;50.072;7.036;2024-03-25T00:52:51;5.00;99.90
15426;DHT22;7812;50.072;7.036;2024-03-25T00:55:18;4.80;99.90
15426;DHT22;7812;50.072;7.036;2024-03-25T00:57:44;4.80;99.90
15426;DHT22;7812;50.072;7.036;2024-03-25T01:00:10;4.70;99.90
15426;DHT22;7812;50.072;7.036;2024-03-25T01:02:36;4.70;99.90
15426;DHT22;7812;50.072;7.036;2024-03-25T01:05:03;4.90;99.90
15426;DHT22;7812;50.072;7.036;2024-03-25T01:07:30;5.10;99.90
15426;DHT22;7812;50.072;7.036;2024-03-25T01:09:56;4.90;99.90
15426;DHT22;7812;50.072;7.036;2024-03-25T01:12:22;5.10;99.90
15426;DHT22;7812;50.072;7.036;2024-03-25T01:14:47;5.10;99.90
15426;DHT22;7812;50.072;7.036;2024-03-25T01:17:13;5.10;99.90
15426;DHT22;7812;50.072;7.036;2024-03-25T01:19:39;5.20;99.90
15426;DHT22;7812;50.072;7.036;2024-03-25T01:22:04;5.20;99.90
15426;DHT22;7812;50.072;7.036;2024-03-25T01:24:30;4.90;99.90
15426;DHT22;7812;50.072;7.036;2024-03-25T01:26:56;4.90;99.90
15426;DHT22;7812;50.072;7.036;2024-03-25T01:29:22;4.90;99.90
15426;DHT22;7812;50.072;7.036;2024-03-25T01:31:47;4.90;99.90
15426;DHT22;7812;50.072;7.036;2024-03-25T01:34:14;4.60;99.90
15426;DHT22;7812;50.072;7.036;2024-03-25T01:36:39;4.60;99.90
15426;DHT22;7812;50.072;7.036;2024-03-25T01:39:05;4.60;99.90
15426;DHT22;7812;50.072;7.036;2024-03-25T01:41:31;4.40;99.90
15426;DHT22;7812;50.072;7.036;2024-03-25T01:43:56;4.60;99.90
15426;DHT22;7812;50.072;7.036;2024-03-25T01:46:22;4.60;99.90
15426;DHT22;7812;50.072;7.036;2024-03-25T01:48:49;4.80;99.90
15426;DHT22;7812;50.072;7.036;2024-03-25T01:51:17;4.90;99.90
15426;DHT22;7812;50.072;7.036;2024-03-25T01:53:44;4.90;99.90
15426;DHT22;7812;50.072;7.036;2024-03-25T01:56:12;4.70;99.90
15426;DHT22;7812;50.072;7.036;2024-03-25T01:58:40;4.70;99.90
15426;DHT22;7812;50.072;7.036;2024-03-25T02:01:06;4.50;99.90
15426;DHT22;7812;50.072;7.036;2024-03-25T02:03:32;4.40;99.90
15426;DHT22;7812;50.072;7.036;2024-03-25T02:06:02;4.30;99.90
15426;DHT22;7812;50.072;7.036;2024-03-25T02:08:28;4.20;99.90
15426;DHT22;7812;50.072;7.036;2024-03-25T02:10:55;4.40;99.90
15426;DHT22;7812;50.072;7.036;2024-03-25T02:13:21;4.50;99.90
15426;DHT22;7812;50.072;7.036;2024-03-25T02:15:47;4.50;99.90
15426;DHT22;7812;50.072;7.036;2024-03-25T02:18:16;4.40;99.90
15426;DHT22;7812;50.072;7.036;2024-03-25T02:20:42;4.10;99.90
15426;DHT22;7812;50.072;7.036;2024-03-25T02:23:08;3.90;99.90
15426;DHT22;7812;50.072;7.036;2024-03-25T02:25:38;3.80;99.90
15426;DHT22;7812;50.072;7.036;2024-03-25T02:28:04;3.80;99.90
15426;DHT22;7812;50.072;7.036;2024-03-25T02:30:30;3.90;99.90
15426;DHT22;7812;50.072;7.036;2024-03-25T02:32:55;4.00;99.90
15426;DHT22;7812;50.072;7.036;2024-03-25T02:35:22;4.10;99.90
15426;DHT22;7812;50.072;7.036;2024-03-25T02:37:50;4.20;99.90
15426;DHT22;7812;50.072;7.036;2024-03-25T02:40:17;4.10;99.90
15426;DHT22;7812;50.072;7.036;2024-03-25T02:42:43;3.80;99.90
15426;DHT22;7812;50.072;7.036;2024-03-25T02:45:09;3.70;99.90
15426;DHT22;7812;50.072;7.036;2024-03-25T02:47:34;3.70;99.90
15426;DHT22;7812;50.072;7.036;2024-03-25T02:50:00;3.50;99.90
15426;DHT22;7812;50.072;7.036;2024-03-25T02:52:26;3.40;99.90
15426;DHT22;7812;50.072;7.036;2024-03-25T02:54:51;3.50;99.90
15426;DHT22;7812;50.072;7.036;2024-03-25T02:57:17;3.60;99.90
15426;DHT22;7812;50.072;7.036;2024-03-25T02:59:43;3.50;99.90
15426;DHT22;7812;50.072;7.036;2024-03-25T03:02:08;3.50;99.90
15426;DHT22;7812;50.072;7.036;2024-03-25T03:04:34;3.60;99.90
15426;DHT22;7812;50.072;7.036;2024-03-25T03:06:59;3.70;99.90
15426;DHT22;7812;50.072;7.036;2024-03-25T03:09:25;3.60;99.90
15426;DHT22;7812;50.072;7.036;2024-03-25T03:11:51;3.50;99.90
15426;DHT22;7812;50.072;7.036;2024-03-25T03:14:17;3.50;99.90
15426;DHT22;7812;50.072;7.036;2024-03-25T03:16:42;3.70;99.90
15426;DHT22;7812;50.072;7.036;2024-03-25T03:19:08;3.80;99.90
15426;DHT22;7812;50.072;7.036;2024-03-25T03:21:34;3.80;99.90
15426;DHT22;7812;50.072;7.036;2024-03-25T03:23:59;3.80;99.90
15426;DHT22;7812;50.072;7.036;2024-03-25T03:26:25;3.50;99.90
15426;DHT22;7812;50.072;7.036;2024-03-25T03:28:59;3.40;99.90
15426;DHT22;7812;50.072;7.036;2024-03-25T03:31:26;3.10;99.90
15426;DHT22;7812;50.072;7.036;2024-03-25T03:33:52;2.90;99.90
15426;DHT22;7812;50.072;7.036;2024-03-25T03:36:20;3.10;99.90
15426;DHT22;7812;50.072;7.036;2024-03-25T03:38:46;3.30;99.90
15426;DHT22;7812;50.072;7.036;2024-03-25T03:41:12;3.40;99.90
15426;DHT22;7812;50.072;7.036;2024-03-25T03:43:37;3.40;99.90
15426;DHT22;7812;50.072;7.036;2024-03-25T03:46:03;3.40;99.90
15426;DHT22;7812;50.072;7.036;2024-03-25T03:48:30;3.50;99.90
15426;DHT22;7812;50.072;7.036;2024-03-25T03:50:56;3.50;99.90
15426;DHT22;7812;50.072;7.036;2024-03-25T03:53:21;3.30;99.90
15426;DHT22;7812;50.072;7.036;2024-03-25T03:55:58;3.00;99.90
15426;DHT22;7812;50.072;7.036;2024-03-25T03:58:24;2.80;99.90
15426;DHT22;7812;50.072;7.036;2024-03-25T04:00:51;2.80;99.90
15426;DHT22;7812;50.072;7.036;2024-03-25T04:03:17;2.90;99.90
15426;DHT22;7812;50.072;7.036;2024-03-25T04:05:42;3.00;99.90
15426;DHT22;7812;50.072;7.036;2024-03-25T04:08:08;3.10;99.90
15426;DHT22;7812;50.072;7.036;2024-03-25T04:10:35;3.10;99.90
15426;DHT22;7812;50.072;7.036;2024-03-25T04:13:01;3.00;99.90
15426;DHT22;7812;50.072;7.036;2024-03-25T04:15:27;3.00;99.90
15426;DHT22;7812;50.072;7.036;2024-03-25T04:17:53;2.90;99.90
15426;DHT22;7812;50.072;7.036;2024-03-25T04:20:18;3.00;99.90
15426;DHT22;7812;50.072;7.036;2024-03-25T04:22:45;3.10;99.90
15426;DHT22;7812;50.072;7.036;2024-03-25T04:25:11;3.20;99.90
15426;DHT22;7812;50.072;7.036;2024-03-25T04:27:46;3.10;99.90
15426;DHT22;7812;50.072;7.036;2024-03-25T04:30:12;3.10;99.90
15426;DHT22;7812;50.072;7.036;2024-03-25T04:32:38;3.00;99.90
15426;DHT22;7812;50.072;7.036;2024-03-25T04:35:05;2.70;99.90
15426;DHT22;7812;50.072;7.036;2024-03-25T04:37:35;2.50;99.90
15426;DHT22;7812;50.072;7.036;2024-03-25T04:40:01;2.50;99.90
15426;DHT22;7812;50.072;7.036;2024-03-25T04:42:27;2.60;99.90
15426;DHT22;7812;50.072;7.036;2024-03-25T04:44:53;2.70;99.90
15426;DHT22;7812;50.072;7.036;2024-03-25T04:47:19;2.70;99.90
15426;DHT22;7812;50.072;7.036;2024-03-25T04:49:45;2.80;99.90
15426;DHT22;7812;50.072;7.036;2024-03-25T04:52:12;2.90;99.90
15426;DHT22;7812;50.072;7.036;2024-03-25T04:54:42;2.80;99.90
15426;DHT22;7812;50.072;7.036;2024-03-25T04:57:08;2.60;99.90
15426;DHT22;7812;50.072;7.036;2024-03-25T04:59:34;2.50;99.90
15426;DHT22;7812;50.072;7.036;2024-03-25T05:02:00;2.40;99.90
15426;DHT22;7812;50.072;7.036;2024-03-25T05:04:25;2.10;99.90
15426;DHT22;7812;50.072;7.036;2024-03-25T05:06:51;2.00;99.90
15426;DHT22;7812;50.072;7.036;2024-03-25T05:09:17;2.00;99.90
15426;DHT22;7812;50.072;7.036;2024-03-25T05:11:43;2.00;99.90
15426;DHT22;7812;50.072;7.036;2024-03-25T05:14:09;2.10;99.90
15426;DHT22;7812;50.072;7.036;2024-03-25T05:16:35;2.20;99.90
15426;DHT22;7812;50.072;7.036;2024-03-25T05:19:02;2.40;99.90
15426;DHT22;7812;50.072;7.036;2024-03-25T05:21:27;2.40;99.90
15426;DHT22;7812;50.072;7.036;2024-03-25T05:23:53;2.40;99.90
15426;DHT22;7812;50.072;7.036;2024-03-25T05:26:19;2.10;99.90
15426;DHT22;7812;50.072;7.036;2024-03-25T05:28:44;2.00;99.90
15426;DHT22;7812;50.072;7.036;2024-03-25T05:31:10;2.10;99.90
15426;DHT22;7812;50.072;7.036;2024-03-25T05:33:36;2.30;99.90
15426;DHT22;7812;50.072;7.036;2024-03-25T05:36:03;2.20;99.90
15426;DHT22;7812;50.072;7.036;2024-03-25T05:38:29;2.40;99.90
15426;DHT22;7812;50.072;7.036;2024-03-25T05:40:55;2.50;99.90
15426;DHT22;7812;50.072;7.036;2024-03-25T05:43:21;2.50;99.90
15426;DHT22;7812;50.072;7.036;2024-03-25T05:45:56;2.60;99.90
15426;DHT22;7812;50.072;7.036;2024-03-25T05:48:24;2.60;99.90
15426;DHT22;7812;50.072;7.036;2024-03-25T05:53:29;2.70;99.90
15426;DHT22;7812;50.072;7.036;2024-03-25T05:55:55;2.70;99.90
15426;DHT22;7812;50.072;7.036;2024-03-25T05:58:21;2.80;99.90
15426;DHT22;7812;50.072;7.036;2024-03-25T06:00:48;3.10;99.90
15426;DHT22;7812;50.072;7.036;2024-03-25T06:03:14;3.10;99.90
15426;DHT22;7812;50.072;7.036;2024-03-25T06:05:40;3.30;99.90
15426;DHT22;7812;50.072;7.036;2024-03-25T06:08:06;3.30;99.90
15426;DHT22;7812;50.072;7.036;2024-03-25T06:10:37;3.10;99.90
15426;DHT22;7812;50.072;7.036;2024-03-25T06:13:02;3.40;99.90
15426;DHT22;7812;50.072;7.036;2024-03-25T06:15:28;3.50;99.90
15426;DHT22;7812;50.072;7.036;2024-03-25T06:17:54;3.70;99.90
15426;DHT22;7812;50.072;7.036;2024-03-25T06:20:20;3.90;99.90
15426;DHT22;7812;50.072;7.036;2024-03-25T06:22:46;4.40;99.90
15426;DHT22;7812;50.072;7.036;2024-03-25T06:25:11;5.80;99.90
15426;DHT22;7812;50.072;7.036;2024-03-25T06:27:37;6.90;99.90
15426;DHT22;7812;50.072;7.036;2024-03-25T06:30:03;7.90;99.90
15426;DHT22;7812;50.072;7.036;2024-03-25T06:32:47;8.40;99.90
15426;DHT22;7812;50.072;7.036;2024-03-25T06:35:31;9.50;99.90
15426;DHT22;7812;50.072;7.036;2024-03-25T06:37:57;10.70;99.90
15426;DHT22;7812;50.072;7.036;2024-03-25T06:40:23;11.30;99.90
15426;DHT22;7812;50.072;7.036;2024-03-25T06:42:48;11.40;99.90
15426;DHT22;7812;50.072;7.036;2024-03-25T06:45:14;11.70;99.90
15426;DHT22;7812;50.072;7.036;2024-03-25T06:47:41;11.80;99.90
15426;DHT22;7812;50.072;7.036;2024-03-25T06:50:07;12.00;99.90
15426;DHT22;7812;50.072;7.036;2024-03-25T06:52:33;10.90;99.90
15426;DHT22;7812;50.072;7.036;2024-03-25T06:54:58;11.70;99.90
15426;DHT22;7812;50.072;7.036;2024-03-25T06:57:24;12.00;99.90
15426;DHT22;7812;50.072;7.036;2024-03-25T06:59:50;12.80;99.90
15426;DHT22;7812;50.072;7.036;2024-03-25T07:02:15;13.20;99.90
15426;DHT22;7812;50.072;7.036;2024-03-25T07:04:41;11.30;99.90
15426;DHT22;7812;50.072;7.036;2024-03-25T07:07:06;10.70;99.90
15426;DHT22;7812;50.072;7.036;2024-03-25T07:09:34;11.70;99.90
15426;DHT22;7812;50.072;7.036;2024-03-25T07:11:59;12.20;99.90
15426;DHT22;7812;50.072;7.036;2024-03-25T07:14:25;13.10;99.90
15426;DHT22;7812;50.072;7.036;2024-03-25T07:16:51;14.00;99.90
15426;DHT22;7812;50.072;7.036;2024-03-25T07:19:16;13.90;99.90
15426;DHT22;7812;50.072;7.036;2024-03-25T07:21:42;14.50;99.90
15426;DHT22;7812;50.072;7.036;2024-03-25T07:24:07;15.20;99.90
15426;DHT22;7812;50.072;7.036;2024-03-25T07:26:33;15.50;99.90
15426;DHT22;7812;50.072;7.036;2024-03-25T07:28:59;16.10;99.90
15426;DHT22;7812;50.072;7.036;2024-03-25T07:31:24;16.60;99.90
15426;DHT22;7812;50.072;7.036;2024-03-25T07:33:51;15.90;99.90
15426;DHT22;7812;50.072;7.036;2024-03-25T07:36:16;14.60;99.90
15426;DHT22;7812;50.072;7.036;2024-03-25T07:38:44;14.20;99.90
15426;DHT22;7812;50.072;7.036;2024-03-25T07:41:09;12.90;99.90
15426;DHT22;7812;50.072;7.036;2024-03-25T07:43:35;13.00;99.90
15426;DHT22;7812;50.072;7.036;2024-03-25T07:46:01;13.80;99.90
15426;DHT22;7812;50.072;7.036;2024-03-25T07:48:26;15.70;99.90
15426;DHT22;7812;50.072;7.036;2024-03-25T07:50:52;17.60;99.90
15426;DHT22;7812;50.072;7.036;2024-03-25T07:53:17;17.20;99.90
15426;DHT22;7812;50.072;7.036;2024-03-25T07:55:43;16.70;99.90
15426;DHT22;7812;50.072;7.036;2024-03-25T07:58:09;14.30;99.90
15426;DHT22;7812;50.072;7.036;2024-03-25T08:00:35;14.70;99.90
15426;DHT22;7812;50.072;7.036;2024-03-25T08:03:00;15.90;99.90
15426;DHT22;7812;50.072;7.036;2024-03-25T08:05:26;17.40;99.90
15426;DHT22;7812;50.072;7.036;2024-03-25T08:07:55;18.80;99.90
15426;DHT22;7812;50.072;7.036;2024-03-25T08:10:20;18.60;99.90
15426;DHT22;7812;50.072;7.036;2024-03-25T08:12:46;18.60;99.90
15426;DHT22;7812;50.072;7.036;2024-03-25T08:15:11;18.80;99.90
15426;DHT22;7812;50.072;7.036;2024-03-25T08:17:39;17.40;99.90
15426;DHT22;7812;50.072;7.036;2024-03-25T08:20:04;15.30;99.90
15426;DHT22;7812;50.072;7.036;2024-03-25T08:22:30;16.60;99.90
15426;DHT22;7812;50.072;7.036;2024-03-25T08:24:56;15.30;99.90
15426;DHT22;7812;50.072;7.036;2024-03-25T08:27:22;15.60;99.90
15426;DHT22;7812;50.072;7.036;2024-03-25T08:29:47;15.50;99.90
15426;DHT22;7812;50.072;7.036;2024-03-25T08:32:16;16.80;99.90
15426;DHT22;7812;50.072;7.036;2024-03-25T08:34:42;17.00;99.90
15426;DHT22;7812;50.072;7.036;2024-03-25T08:37:08;16.80;99.90
15426;DHT22;7812;50.072;7.036;2024-03-25T08:39:33;16.20;99.90
15426;DHT22;7812;50.072;7.036;2024-03-25T08:41:59;15.90;99.90
15426;DHT22;7812;50.072;7.036;2024-03-25T08:44:25;16.70;99.90
15426;DHT22;7812;50.072;7.036;2024-03-25T08:46:50;17.30;99.90
15426;DHT22;7812;50.072;7.036;2024-03-25T08:49:16;17.50;99.90
15426;DHT22;7812;50.072;7.036;2024-03-25T08:51:42;16.70;99.90
15426;DHT22;7812;50.072;7.036;2024-03-25T08:54:07;16.40;99.90
15426;DHT22;7812;50.072;7.036;2024-03-25T08:56:33;15.50;99.90
15426;DHT22;7812;50.072;7.036;2024-03-25T08:58:58;15.00;99.90
15426;DHT22;7812;50.072;7.036;2024-03-25T09:01:24;16.50;99.90
15426;DHT22;7812;50.072;7.036;2024-03-25T09:03:50;16.80;99.90
15426;DHT22;7812;50.072;7.036;2024-03-25T09:06:15;17.90;99.90
15426;DHT22;7812;50.072;7.036;2024-03-25T09:08:42;17.60;99.90
15426;DHT22;7812;50.072;7.036;2024-03-25T09:11:26;17.50;99.90
15426;DHT22;7812;50.072;7.036;2024-03-25T09:13:52;18.00;99.90
15426;DHT22;7812;50.072;7.036;2024-03-25T09:16:18;17.80;99.90
15426;DHT22;7812;50.072;7.036;2024-03-25T09:18:44;17.00;99.90
15426;DHT22;7812;50.072;7.036;2024-03-25T09:21:11;16.30;99.90
15426;DHT22;7812;50.072;7.036;2024-03-25T09:23:36;15.50;99.90
15426;DHT22;7812;50.072;7.036;2024-03-25T09:26:02;15.40;99.90
15426;DHT22;7812;50.072;7.036;2024-03-25T09:28:28;15.40;99.90
15426;DHT22;7812;50.072;7.036;2024-03-25T09:30:53;15.70;99.90
15426;DHT22;7812;50.072;7.036;2024-03-25T09:33:19;14.60;99.90
15426;DHT22;7812;50.072;7.036;2024-03-25T09:35:45;16.40;99.90
15426;DHT22;7812;50.072;7.036;2024-03-25T09:38:10;17.40;99.90
15426;DHT22;7812;50.072;7.036;2024-03-25T09:40:40;17.10;99.90
15426;DHT22;7812;50.072;7.036;2024-03-25T09:43:13;17.10;99.90
15426;DHT22;7812;50.072;7.036;2024-03-25T09:45:44;17.20;99.90
15426;DHT22;7812;50.072;7.036;2024-03-25T09:48:18;17.00;99.90
15426;DHT22;7812;50.072;7.036;2024-03-25T09:50:45;17.00;99.90
15426;DHT22;7812;50.072;7.036;2024-03-25T09:53:11;16.40;99.90
15426;DHT22;7812;50.072;7.036;2024-03-25T09:55:36;16.60;99.90
15426;DHT22;7812;50.072;7.036;2024-03-25T09:58:05;17.20;99.90
15426;DHT22;7812;50.072;7.036;2024-03-25T10:00:31;16.90;99.90
15426;DHT22;7812;50.072;7.036;2024-03-25T10:02:56;16.60;99.90
15426;DHT22;7812;50.072;7.036;2024-03-25T10:05:22;16.80;99.90
15426;DHT22;7812;50.072;7.036;2024-03-25T10:07:48;18.00;99.90
15426;DHT22;7812;50.072;7.036;2024-03-25T10:10:13;19.00;99.90
15426;DHT22;7812;50.072;7.036;2024-03-25T10:12:44;18.50;99.90
15426;DHT22;7812;50.072;7.036;2024-03-25T10:15:17;18.80;99.90
15426;DHT22;7812;50.072;7.036;2024-03-25T10:17:43;19.40;99.90
15426;DHT22;7812;50.072;7.036;2024-03-25T10:20:15;21.50;99.90
15426;DHT22;7812;50.072;7.036;2024-03-25T10:22:42;22.20;96.90
15426;DHT22;7812;50.072;7.036;2024-03-25T10:25:18;21.40;92.90
15426;DHT22;7812;50.072;7.036;2024-03-25T10:27:53;21.10;95.30
15426;DHT22;7812;50.072;7.036;2024-03-25T10:30:19;20.80;93.40
15426;DHT22;7812;50.072;7.036;2024-03-25T10:32:45;20.20;93.30
15426;DHT22;7812;50.072;7.036;2024-03-25T10:35:11;19.90;93.40
15426;DHT22;7812;50.072;7.036;2024-03-25T10:37:38;18.80;92.80
15426;DHT22;7812;50.072;7.036;2024-03-25T10:40:05;17.90;95.60
15426;DHT22;7812;50.072;7.036;2024-03-25T10:42:34;18.40;95.30
15426;DHT22;7812;50.072;7.036;2024-03-25T10:45:01;19.50;93.60
15426;DHT22;7812;50.072;7.036;2024-03-25T10:47:28;20.40;91.80
15426;DHT22;7812;50.072;7.036;2024-03-25T10:49:59;19.30;92.30
15426;DHT22;7812;50.072;7.036;2024-03-25T10:52:29;18.00;91.50
15426;DHT22;7812;50.072;7.036;2024-03-25T10:54:55;16.40;91.50
15426;DHT22;7812;50.072;7.036;2024-03-25T10:57:21;15.70;92.30
15426;DHT22;7812;50.072;7.036;2024-03-25T10:59:49;15.00;92.90
15426;DHT22;7812;50.072;7.036;2024-03-25T11:02:14;15.40;96.00
15426;DHT22;7812;50.072;7.036;2024-03-25T11:04:42;16.90;92.90
15426;DHT22;7812;50.072;7.036;2024-03-25T11:07:14;17.90;92.90
15426;DHT22;7812;50.072;7.036;2024-03-25T11:09:40;19.60;92.60
15426;DHT22;7812;50.072;7.036;2024-03-25T11:12:07;20.80;90.70
15426;DHT22;7812;50.072;7.036;2024-03-25T11:14:35;21.60;86.80
15426;DHT22;7812;50.072;7.036;2024-03-25T11:17:01;22.70;84.20
15426;DHT22;7812;50.072;7.036;2024-03-25T11:19:28;22.90;75.80
15426;DHT22;7812;50.072;7.036;2024-03-25T11:22:05;23.60;72.70
15426;DHT22;7812;50.072;7.036;2024-03-25T11:24:31;22.40;74.10
15426;DHT22;7812;50.072;7.036;2024-03-25T11:26:57;22.40;72.90
15426;DHT22;7812;50.072;7.036;2024-03-25T11:29:22;23.40;70.20
15426;DHT22;7812;50.072;7.036;2024-03-25T11:31:52;22.60;68.70
15426;DHT22;7812;50.072;7.036;2024-03-25T11:34:19;21.30;63.10
15426;DHT22;7812;50.072;7.036;2024-03-25T11:36:44;20.50;64.30
15426;DHT22;7812;50.072;7.036;2024-03-25T11:39:11;19.30;63.40
15426;DHT22;7812;50.072;7.036;2024-03-25T11:41:44;18.20;63.10
15426;DHT22;7812;50.072;7.036;2024-03-25T11:44:11;17.80;67.60
15426;DHT22;7812;50.072;7.036;2024-03-25T11:46:40;18.00;63.20
15426;DHT22;7812;50.072;7.036;2024-03-25T11:49:16;17.50;61.60
15426;DHT22;7812;50.072;7.036;2024-03-25T11:51:45;16.80;66.30
15426;DHT22;7812;50.072;7.036;2024-03-25T11:54:12;17.00;72.50
15426;DHT22;7812;50.072;7.036;2024-03-25T11:56:38;18.50;71.90
15426;DHT22;7812;50.072;7.036;2024-03-25T11:59:04;20.80;67.20
15426;DHT22;7812;50.072;7.036;2024-03-25T12:01:31;22.70;61.40
15426;DHT22;7812;50.072;7.036;2024-03-25T12:03:56;23.90;60.70
15426;DHT22;7812;50.072;7.036;2024-03-25T12:06:22;24.00;57.60
15426;DHT22;7812;50.072;7.036;2024-03-25T12:08:48;23.90;56.00
15426;DHT22;7812;50.072;7.036;2024-03-25T12:11:33;21.70;58.10
15426;DHT22;7812;50.072;7.036;2024-03-25T12:13:59;18.50;56.40
15426;DHT22;7812;50.072;7.036;2024-03-25T12:16:26;16.80;60.50
15426;DHT22;7812;50.072;7.036;2024-03-25T12:18:51;17.00;66.80
15426;DHT22;7812;50.072;7.036;2024-03-25T12:21:19;16.90;61.20
15426;DHT22;7812;50.072;7.036;2024-03-25T12:23:46;15.20;61.00
15426;DHT22;7812;50.072;7.036;2024-03-25T12:26:13;16.20;62.80
15426;DHT22;7812;50.072;7.036;2024-03-25T12:28:40;17.50;61.80
15426;DHT22;7812;50.072;7.036;2024-03-25T12:31:09;18.30;60.60
15426;DHT22;7812;50.072;7.036;2024-03-25T12:33:41;20.00;62.70
15426;DHT22;7812;50.072;7.036;2024-03-25T12:36:06;19.90;63.40
15426;DHT22;7812;50.072;7.036;2024-03-25T12:38:32;19.90;58.60
15426;DHT22;7812;50.072;7.036;2024-03-25T12:41:23;18.70;56.90
15426;DHT22;7812;50.072;7.036;2024-03-25T12:43:50;15.80;59.60
15426;DHT22;7812;50.072;7.036;2024-03-25T12:46:16;15.20;62.10
15426;DHT22;7812;50.072;7.036;2024-03-25T12:48:42;15.60;62.20
15426;DHT22;7812;50.072;7.036;2024-03-25T12:51:15;17.40;60.40
15426;DHT22;7812;50.072;7.036;2024-03-25T12:53:41;16.90;61.10
15426;DHT22;7812;50.072;7.036;2024-03-25T12:56:07;17.40;63.70
15426;DHT22;7812;50.072;7.036;2024-03-25T12:58:33;16.70;60.70
15426;DHT22;7812;50.072;7.036;2024-03-25T13:00:59;15.60;62.00
15426;DHT22;7812;50.072;7.036;2024-03-25T13:03:25;15.00;61.50
15426;DHT22;7812;50.072;7.036;2024-03-25T13:05:50;15.30;63.60
15426;DHT22;7812;50.072;7.036;2024-03-25T13:08:16;15.20;71.20
15426;DHT22;7812;50.072;7.036;2024-03-25T13:10:45;14.70;67.10
15426;DHT22;7812;50.072;7.036;2024-03-25T13:13:10;14.60;66.30
15426;DHT22;7812;50.072;7.036;2024-03-25T13:15:36;14.80;63.90
15426;DHT22;7812;50.072;7.036;2024-03-25T13:18:02;15.70;67.00
15426;DHT22;7812;50.072;7.036;2024-03-25T13:20:27;16.50;64.30
15426;DHT22;7812;50.072;7.036;2024-03-25T13:22:54;17.20;63.70
15426;DHT22;7812;50.072;7.036;2024-03-25T13:25:24;17.90;64.90
15426;DHT22;7812;50.072;7.036;2024-03-25T13:27:50;16.60;61.90
15426;DHT22;7812;50.072;7.036;2024-03-25T13:30:16;16.80;68.80
15426;DHT22;7812;50.072;7.036;2024-03-25T13:32:42;17.50;62.70
15426;DHT22;7812;50.072;7.036;2024-03-25T13:35:07;16.60;63.00
15426;DHT22;7812;50.072;7.036;2024-03-25T13:37:33;14.70;62.70
15426;DHT22;7812;50.072;7.036;2024-03-25T13:39:59;13.70;64.70
15426;DHT22;7812;50.072;7.036;2024-03-25T13:42:24;13.80;67.10
15426;DHT22;7812;50.072;7.036;2024-03-25T13:44:50;13.90;66.70
15426;DHT22;7812;50.072;7.036;2024-03-25T13:47:15;14.00;69.20
15426;DHT22;7812;50.072;7.036;2024-03-25T13:49:41;13.50;69.60
15426;DHT22;7812;50.072;7.036;2024-03-25T13:52:07;13.20;69.50
15426;DHT22;7812;50.072;7.036;2024-03-25T13:54:32;12.80;69.80
15426;DHT22;7812;50.072;7.036;2024-03-25T13:56:58;12.60;69.80
15426;DHT22;7812;50.072;7.036;2024-03-25T13:59:24;12.40;70.60
15426;DHT22;7812;50.072;7.036;2024-03-25T14:01:50;12.30;73.60
15426;DHT22;7812;50.072;7.036;2024-03-25T14:04:17;12.70;75.00
15426;DHT22;7812;50.072;7.036;2024-03-25T14:06:43;13.20;76.60
15426;DHT22;7812;50.072;7.036;2024-03-25T14:09:22;13.70;76.40
15426;DHT22;7812;50.072;7.036;2024-03-25T14:11:48;14.30;74.00
15426;DHT22;7812;50.072;7.036;2024-03-25T14:14:13;13.70;70.90
15426;DHT22;7812;50.072;7.036;2024-03-25T14:16:39;13.10;70.60
15426;DHT22;7812;50.072;7.036;2024-03-25T14:19:04;12.90;70.50
15426;DHT22;7812;50.072;7.036;2024-03-25T14:21:30;12.80;69.10
15426;DHT22;7812;50.072;7.036;2024-03-25T14:23:56;12.70;79.70
15426;DHT22;7812;50.072;7.036;2024-03-25T14:26:21;13.20;78.20
15426;DHT22;7812;50.072;7.036;2024-03-25T14:28:47;12.80;70.10
15426;DHT22;7812;50.072;7.036;2024-03-25T14:31:13;12.60;71.50
15426;DHT22;7812;50.072;7.036;2024-03-25T14:33:38;12.60;72.00
15426;DHT22;7812;50.072;7.036;2024-03-25T14:36:04;12.60;71.10
15426;DHT22;7812;50.072;7.036;2024-03-25T14:38:30;12.70;70.40
15426;DHT22;7812;50.072;7.036;2024-03-25T14:40:56;12.90;72.00
15426;DHT22;7812;50.072;7.036;2024-03-25T14:43:21;13.10;74.30
15426;DHT22;7812;50.072;7.036;2024-03-25T14:45:56;13.20;71.30
15426;DHT22;7812;50.072;7.036;2024-03-25T14:48:22;12.80;71.10
15426;DHT22;7812;50.072;7.036;2024-03-25T14:50:48;12.90;71.40
15426;DHT22;7812;50.072;7.036;2024-03-25T14:53:13;12.90;71.30
15426;DHT22;7812;50.072;7.036;2024-03-25T14:55:41;13.10;77.50
15426;DHT22;7812;50.072;7.036;2024-03-25T14:58:09;13.50;71.20
15426;DHT22;7812;50.072;7.036;2024-03-25T15:00:35;14.00;69.90
15426;DHT22;7812;50.072;7.036;2024-03-25T15:03:01;13.50;67.20
15426;DHT22;7812;50.072;7.036;2024-03-25T15:05:26;13.30;69.90
15426;DHT22;7812;50.072;7.036;2024-03-25T15:07:52;13.20;70.40
15426;DHT22;7812;50.072;7.036;2024-03-25T15:10:18;13.10;70.40
15426;DHT22;7812;50.072;7.036;2024-03-25T15:12:46;12.80;70.40
15426;DHT22;7812;50.072;7.036;2024-03-25T15:15:11;12.40;71.50
15426;DHT22;7812;50.072;7.036;2024-03-25T15:17:37;12.40;75.20
15426;DHT22;7812;50.072;7.036;2024-03-25T15:20:06;12.70;81.60
15426;DHT22;7812;50.072;7.036;2024-03-25T15:22:32;12.90;77.20
15426;DHT22;7812;50.072;7.036;2024-03-25T15:24:58;13.00;75.80
15426;DHT22;7812;50.072;7.036;2024-03-25T15:27:24;12.90;78.00
15426;DHT22;7812;50.072;7.036;2024-03-25T15:29:49;13.10;88.50
15426;DHT22;7812;50.072;7.036;2024-03-25T15:32:15;13.30;79.10
15426;DHT22;7812;50.072;7.036;2024-03-25T15:34:41;12.80;75.50
15426;DHT22;7812;50.072;7.036;2024-03-25T15:37:07;12.30;77.00
15426;DHT22;7812;50.072;7.036;2024-03-25T15:39:35;12.10;74.30
15426;DHT22;7812;50.072;7.036;2024-03-25T15:42:01;12.00;75.60
15426;DHT22;7812;50.072;7.036;2024-03-25T15:44:40;12.00;76.50
15426;DHT22;7812;50.072;7.036;2024-03-25T15:47:05;11.70;74.70
15426;DHT22;7812;50.072;7.036;2024-03-25T15:49:31;11.70;74.80
15426;DHT22;7812;50.072;7.036;2024-03-25T15:51:57;11.50;73.80